Data for 03/29/2018

Time Sea-Level Adjusted Pressure Absolute Pressure Temperature Relative Humidity Dew Point   
(mb) (inHg) (mb) (inHg) (C) (F) (%) (C) (F)
00:05 1019 30.09 848 25.04 1.4 34.5 52 -7.5 18.6
00:10 1019 30.09 848 25.04 1.1 34 52 -7.7 18.1
00:15 1019 30.09 848 25.04 1.1 34 51 -7.9 17.7
00:20 1019 30.09 848 25.04 1 33.9 51 -8 17.5
00:25 1019 30.09 848 25.04 1 33.7 50 -8.3 17.1
00:30 1019 30.09 848 25.04 0.9 33.7 53 -7.6 18.2
00:35 1019 30.09 848 25.04 0.7 33.3 53 -7.7 18.2
00:40 1019 30.09 848 25.04 0.6 33 54 -7.7 18.1
00:45 1019 30.09 848 25.04 0.5 32.9 55 -7.5 18.4
00:50 1019 30.09 848 25.04 0.4 32.8 54 -7.8 18
00:55 1019 30.09 848 25.04 0.5 32.9 55 -7.5 18.4
01:00 1019 30.09 848 25.04 0.4 32.6 55 -7.5 18.4
01:05 1019 30.09 848 25.04 0 32.1 58 -7.3 18.9
01:10 1019 30.09 848 25.04 0.1 32.2 55 -7.9 17.8
01:15 1019 30.09 848 25.04 0.4 32.8 53 -8 17.6
01:20 1019 30.09 848 25.04 0.7 33.2 53 -7.9 17.8
01:25 1019 30.09 848 25.04 0.7 33.3 53 -7.9 17.8
01:30 1019 30.09 848 25.04 0.8 33.4 53 -7.8 18
01:35 1019 30.09 848 25.04 0.8 33.4 52 -8 17.6
01:40 1019 30.09 848 25.04 0.9 33.6 52 -7.9 17.8
01:45 1019 30.09 848 25.04 0.8 33.5 53 -7.8 17.9
01:50 1019 30.09 848 25.04 0.8 33.5 52 -8.1 17.5
01:55 1019 30.09 848 25.04 0.9 33.6 52 -7.9 17.8
02:00 1019 30.09 848 25.04 1 33.8 51 -8 17.6
02:05 1019 30.09 848 25.04 1.1 34 50 -8.2 17.2
02:10 1019 30.09 848 25.04 1.2 34.1 50 -8.1 17.3
02:15 1019 30.09 848 25.04 1.2 34.1 51 -8 17.6
02:20 1019 30.09 848 25.04 1.1 34 51 -8 17.5
02:25 1019 30.09 848 25.04 1.1 34.1 51 -8 17.6
02:30 1019 30.09 848 25.04 1.1 34 50 -8.3 17
02:35 1019 30.09 848 25.04 1.2 34.2 48 -8.6 16.5
02:40 1019 30.09 848 25.04 1.4 34.5 47 -8.6 16.5
02:45 1019 30.09 848 25.04 1.3 34.4 47 -8.7 16.4
02:50 1019 30.09 848 25.04 1.4 34.6 45 -9.3 15.2
02:55 1019 30.09 848 25.04 1.5 34.7 46 -8.9 16
03:00 1019 30.09 848 25.04 1.3 34.3 47 -8.9 16
03:05 1019 30.09 848 25.04 1.2 34.1 47 -8.9 15.9
03:10 1019 30.09 848 25.04 1.1 34 47 -8.9 16
03:15 1019 30.09 848 25.04 1.1 34 47 -9 15.7
03:20 1019 30.09 848 25.04 1.2 34.1 48 -8.8 16.2
03:25 1019 30.09 848 25.04 1.1 34.1 46 -9.2 15.5
03:30 1019 30.09 848 25.04 1.3 34.3 44 -9.7 14.5
03:35 1019 30.09 848 25.04 1.4 34.4 46 -9 15.7
03:40 1019 30.09 848 25.04 1.1 34 46 -9.2 15.4
03:45 1019 30.09 848 25.04 0.9 33.7 46 -9.4 15.2
03:50 1019 30.09 848 25.04 0.9 33.6 46 -9.5 14.9
03:55 1019 30.09 848 25.04 0.9 33.6 46 -9.5 14.9
04:00 1019 30.09 848 25.04 0.8 33.4 48 -9.1 15.6
04:05 1019 30.09 848 25.04 0.8 33.4 48 -9 15.8
04:10 1019 30.09 848 25.04 0.8 33.4 48 -9.2 15.5
04:15 1019 30.09 848 25.04 0.8 33.4 47 -9.2 15.4
04:20 1019 30.09 848 25.04 0.8 33.5 46 -9.4 15
04:25 1019 30.09 848 25.04 0.9 33.6 46 -9.4 15.1
04:30 1019 30.09 848 25.04 1 33.8 44 -9.9 14.3
04:35 1019 30.09 848 25.04 1.1 34 44 -9.8 14.3
04:40 1019 30.09 848 25.04 1.1 34 44 -9.9 14.2
04:45 1019 30.09 848 25.04 1.2 34.1 43 -10 14
04:50 1019 30.09 848 25.04 1.2 34.1 43 -10 14
04:55 1019 30.09 848 25.04 1.2 34.1 43 -10.1 13.8
05:00 1019 30.09 848 25.04 1.2 34.2 43 -10.1 13.8
05:05 1019 30.09 848 25.04 1.3 34.3 43 -10 14
05:10 1019 30.09 848 25.04 1.3 34.3 44 -9.8 14.4
05:15 1019 30.09 848 25.04 1.2 34.2 46 -9.1 15.5
05:20 1019 30.09 848 25.04 1 33.8 46 -9.2 15.4
05:25 1019 30.09 848 25.04 1 33.8 46 -9.4 15.1
05:30 1019 30.09 848 25.04 1.1 33.9 45 -9.6 14.7
05:35 1019 30.09 849 25.07 1 33.9 46 -9.3 15.2
05:40 1019 30.09 849 25.07 0.9 33.7 47 -9.3 15.3
05:45 1019 30.09 849 25.07 0.9 33.6 46 -9.4 15.1
05:50 1019 30.09 849 25.07 0.8 33.5 46 -9.5 15
05:55 1020 30.12 849 25.07 0.7 33.3 47 -9.4 15.1
06:00 1020 30.12 849 25.07 0.7 33.2 47 -9.5 14.9
06:05 1020 30.12 849 25.07 0.7 33.2 47 -9.4 15.1
06:10 1020 30.12 849 25.07 0.7 33.2 47 -9.5 14.9
06:15 1020 30.12 849 25.07 0.7 33.2 47 -9.5 15
06:20 1020 30.12 849 25.07 0.7 33.2 47 -9.5 14.9
06:25 1020 30.12 849 25.07 0.7 33.2 46 -9.7 14.6
06:30 1020 30.12 849 25.07 0.7 33.2 45 -9.8 14.3
06:35 1020 30.12 849 25.07 0.6 33.2 45 -10 14
06:40 1020 30.12 849 25.07 0.6 33.1 46 -9.8 14.4
06:45 1020 30.12 849 25.07 0.5 32.9 47 -9.6 14.8
06:50 1020 30.12 849 25.07 0.4 32.7 48 -9.4 15.1
06:55 1020 30.12 849 25.07 0.1 32.1 49 -9.3 15.2
07:00 1020 30.12 849 25.07 -0.1 31.8 50 -9.4 15.1
07:05 1020 30.12 849 25.07 -0.2 31.7 49 -9.6 14.8
07:10 1020 30.12 849 25.07 -0.2 31.7 49 -9.6 14.8
07:15 1020 30.12 849 25.07 -0.2 31.6 49 -9.6 14.8
07:20 1020 30.12 849 25.07 -0.2 31.6 49 -9.8 14.4
07:25 1020 30.12 849 25.07 -0.3 31.5 49 -9.7 14.6
07:30 1020 30.12 849 25.07 -0.2 31.6 49 -9.7 14.6
07:35 1020 30.12 849 25.07 -0.2 31.6 49 -9.8 14.4
07:40 1020 30.12 849 25.07 -0.2 31.6 49 -9.7 14.5
07:45 1020 30.12 849 25.07 -0.2 31.6 48 -9.9 14.1
07:50 1020 30.12 849 25.07 -0.1 31.8 48 -9.9 14.2
07:55 1020 30.12 850 25.1 0 32 48 -9.8 14.4
08:00 1020 30.12 850 25.1 0 32.1 47 -9.9 14.1
08:05 1020 30.12 850 25.1 0 32 47 -9.9 14.2
08:10 1020 30.12 850 25.1 0.1 32.3 46 -10 13.9
08:15 1020 30.12 850 25.1 0.3 32.6 46 -10.1 13.8
08:20 1020 30.12 850 25.1 0.2 32.4 45 -10.3 13.5
08:25 1020 30.12 850 25.1 0.1 32.1 45 -10.4 13.3
08:30 1020 30.12 850 25.1 0.2 32.3 45 -10.5 13.1
08:35 1021 30.15 850 25.1 0.3 32.6 45 -10.3 13.5
08:40 1021 30.15 850 25.1 0.5 32.9 45 -10.3 13.5
08:45 1021 30.15 850 25.1 0.7 33.2 44 -10.1 13.8
08:50 1021 30.15 850 25.1 0.7 33.3 44 -10.1 13.9
08:55 1021 30.15 850 25.1 0.9 33.6 44 -10.1 13.9
09:00 1021 30.15 850 25.1 1 33.7 44 -9.8 14.3
09:05 1021 30.15 850 25.1 1.1 34.1 43 -10 14
09:10 1021 30.15 850 25.1 1.2 34.2 43 -10 13.9
09:15 1021 30.15 850 25.1 1.3 34.3 42 -10.2 13.7
09:20 1021 30.15 850 25.1 1.5 34.7 42 -10 13.9
09:25 1021 30.15 850 25.1 1.6 34.8 41 -10.3 13.4
09:30 1021 30.15 850 25.1 1.7 35.1 41 -10.3 13.5
09:35 1021 30.15 850 25.1 1.9 35.4 40 -10.4 13.3
09:40 1021 30.15 850 25.1 2.1 35.7 38 -10.8 12.6
09:45 1021 30.15 850 25.1 2.2 35.9 38 -10.8 12.6
09:50 1021 30.15 850 25.1 2.3 36.2 38 -10.7 12.8
09:55 1021 30.15 850 25.1 2.5 36.5 38 -10.5 13.1
10:00 1021 30.15 850 25.1 2.9 37.2 37 -10.6 13
10:05 1021 30.15 850 25.1 3.4 38.2 36 -10.1 13.8
10:10 1021 30.15 850 25.1 3.4 38.1 35 -10.6 12.8
10:15 1021 30.15 850 25.1 3.5 38.4 34 -10.7 12.7
10:20 1021 30.15 850 25.1 3.6 38.5 32 -11.7 11
10:25 1021 30.15 850 25.1 3.5 38.3 32 -11.8 10.7
10:30 1021 30.15 850 25.1 3.9 39 31 -11.8 10.8
10:35 1021 30.15 850 25.1 4.3 39.7 31 -11.5 11.2
10:40 1021 30.15 850 25.1 5 41 29 -11.6 11.1
10:45 1021 30.15 850 25.1 4.8 40.6 30 -11.3 11.6
10:50 1021 30.15 850 25.1 4.4 39.9 30 -11.6 11.2
10:55 1021 30.15 850 25.1 4.5 40.1 31 -11.1 12
11:00 1021 30.15 850 25.1 4.6 40.2 28 -12.3 9.9
11:05 1021 30.15 850 25.1 4.8 40.7 28 -12.2 10
11:10 1021 30.15 850 25.1 5 41 28 -12 10.5
11:15 1021 30.15 850 25.1 5.3 41.6 28 -11.8 10.8
11:20 1021 30.15 850 25.1 5.4 41.8 28 -11.6 11.1
11:25 1021 30.15 851 25.13 5.8 42.4 29 -11.1 12.1
11:30 1021 30.15 851 25.13 5.6 42.1 28 -11.4 11.6
11:35 1021 30.15 851 25.13 5.6 42.1 27 -12.2 10.1
11:40 1021 30.15 851 25.13 5.7 42.3 26 -12.3 9.9
11:45 1021 30.15 851 25.13 6.2 43.2 26 -11.9 10.6
11:50 1021 30.15 851 25.13 6.5 43.6 26 -11.6 11.2
11:55 1021 30.15 851 25.13 6 42.9 26 -12.2 10
12:00 1021 30.15 851 25.13 6.3 43.3 26 -11.7 10.9
12:05 1021 30.15 850 25.1 6.3 43.4 25 -12.4 9.6
12:10 1021 30.15 850 25.1 6.3 43.3 26 -12.1 10.2
12:15 1021 30.15 850 25.1 6.3 43.4 25 -12.3 9.9
12:20 1021 30.15 850 25.1 6.4 43.6 25 -12.1 10.3
12:25 1021 30.15 850 25.1 6.1 43 26 -11.8 10.7
12:30 1021 30.15 850 25.1 6.4 43.5 25 -12.4 9.7
12:35 1021 30.15 850 25.1 6.5 43.7 25 -12.4 9.6
12:40 1021 30.15 850 25.1 7 44.6 23 -12.9 8.7
12:45 1021 30.15 850 25.1 7.3 45.1 23 -12.3 9.9
12:50 1021 30.15 850 25.1 7.3 45.1 23 -12.8 8.9
12:55 1021 30.15 850 25.1 7.5 45.5 23 -12.6 9.4
13:00 1021 30.15 850 25.1 7.4 45.3 22 -13.3 8.1
13:05 1021 30.15 850 25.1 7.7 45.9 22 -12.6 9.2
13:10 1021 30.15 850 25.1 7.7 45.8 22 -12.8 9
13:15 1021 30.15 850 25.1 7.8 46 21 -13 8.5
13:20 1021 30.15 850 25.1 7.8 46 22 -12.5 9.5
13:25 1021 30.15 850 25.1 7.5 45.6 22 -12.9 8.8
13:30 1021 30.15 850 25.1 7.3 45.2 22 -12.9 8.8
13:35 1021 30.15 850 25.1 7.4 45.4 20 -14.4 6.1
13:40 1021 30.15 850 25.1 7.8 46 20 -13.9 7
13:45 1021 30.15 850 25.1 7.8 46 20 -14.1 6.7
13:50 1021 30.15 850 25.1 7.7 45.9 18 -15.3 4.5
13:55 1021 30.15 850 25.1 8.5 47.4 18 -14.5 5.9
14:00 1021 30.15 850 25.1 8.4 47.1 20 -13.5 7.7
14:05 1021 30.15 850 25.1 7.9 46.3 21 -13 8.7
14:10 1021 30.15 850 25.1 8.6 47.4 20 -13.4 7.9
14:15 1021 30.15 850 25.1 9.3 48.8 17 -14.9 5.2
14:20 1021 30.15 850 25.1 8.9 48 18 -14.6 5.7
14:25 1020 30.12 850 25.1 8 46.4 19 -14.5 5.9
14:30 1020 30.12 850 25.1 8.1 46.5 20 -13.9 7
14:35 1020 30.12 850 25.1 8 46.3 19 -14.6 5.7
14:40 1020 30.12 850 25.1 7.8 46 20 -14.1 6.6
14:45 1020 30.12 850 25.1 8.3 46.9 18 -14.8 5.4
14:50 1020 30.12 849 25.07 8.9 48 18 -14.5 5.9
14:55 1020 30.12 849 25.07 8.8 47.8 17 -14.9 5.1
15:00 1020 30.12 849 25.07 9 48.2 19 -13.8 7.2
15:05 1020 30.12 849 25.07 9.3 48.8 18 -14.1 6.7
15:10 1020 30.12 849 25.07 9.2 48.5 17 -15 5
15:15 1020 30.12 849 25.07 8.5 47.3 17 -15.5 4.1
15:20 1020 30.12 849 25.07 8.3 47 17 -15.5 4.1
15:25 1020 30.12 849 25.07 8.3 46.9 18 -15 4.9
15:30 1020 30.12 849 25.07 8.5 47.4 15 -16.4 2.5
15:35 1020 30.12 849 25.07 9.2 48.6 15 -15.8 3.5
15:40 1020 30.12 849 25.07 9.4 48.9 14 -16.6 2.1
15:45 1020 30.12 849 25.07 9.1 48.5 15 -16.3 2.7
15:50 1020 30.12 849 25.07 9.6 49.2 15 -16 3.1
15:55 1020 30.12 849 25.07 9.7 49.5 15 -16.1 3
16:00 1020 30.12 849 25.07 10 49.9 14 -16.1 3.1
16:05 1020 30.12 849 25.07 9.3 48.7 15 -16.2 2.9
16:10 1020 30.12 849 25.07 8.8 47.8 16 -15.7 3.7
16:15 1020 30.12 849 25.07 8.8 47.8 15 -16.3 2.7
16:20 1020 30.12 849 25.07 8.6 47.5 16 -15.6 3.9
16:25 1020 30.12 849 25.07 9 48.2 16 -15.5 4.2
16:30 1020 30.12 849 25.07 9.4 48.9 16 -15 5
16:35 1020 30.12 849 25.07 9.8 49.6 16 -15 5
16:40 1020 30.12 849 25.07 9.3 48.8 17 -14.7 5.6
16:45 1020 30.12 849 25.07 9.2 48.5 20 -12.8 8.9
16:50 1020 30.12 849 25.07 8.9 48 20 -13.2 8.3
16:55 1020 30.12 849 25.07 8.7 47.7 19 -13.6 7.6
17:00 1020 30.12 849 25.07 8.9 48.1 19 -13.2 8.2
17:05 1020 30.12 849 25.07 8.8 47.8 21 -12.3 9.8
17:10 1020 30.12 849 25.07 8.8 47.8 21 -12.5 9.5
17:15 1020 30.12 849 25.07 8.5 47.4 20 -13.4 7.9
17:20 1020 30.12 849 25.07 9 48.3 18 -14.4 6.1
17:25 1020 30.12 849 25.07 9.1 48.4 18 -14.1 6.6
17:30 1020 30.12 849 25.07 9.1 48.3 18 -14.1 6.6
17:35 1020 30.12 849 25.07 8.9 48 19 -13.7 7.3
17:40 1020 30.12 849 25.07 8.9 48.1 20 -13.1 8.5
17:45 1020 30.12 849 25.07 8.7 47.7 20 -12.8 8.9
17:50 1020 30.12 849 25.07 8.7 47.7 19 -13.6 7.5
17:55 1020 30.12 849 25.07 8.6 47.4 20 -13.4 7.9
18:00 1020 30.12 849 25.07 8.5 47.4 20 -13.1 8.5
18:05 1020 30.12 849 25.07 8.3 47 20 -13.1 8.3
18:10 1020 30.12 849 25.07 8.3 46.9 22 -12.4 9.6
18:15 1020 30.12 849 25.07 8.2 46.8 21 -13 8.5
18:20 1019 30.09 849 25.07 8.2 46.7 21 -13 8.7
18:25 1019 30.09 849 25.07 8.3 46.9 21 -12.8 9
18:30 1019 30.09 849 25.07 8.3 46.9 21 -12.8 9
18:35 1019 30.09 849 25.07 8.2 46.8 22 -12.5 9.6
18:40 1019 30.09 849 25.07 8.1 46.6 22 -12.1 10.2
18:45 1019 30.09 848 25.04 8.1 46.5 23 -12 10.5
18:50 1019 30.09 848 25.04 8 46.3 22 -12.8 9
18:55 1019 30.09 848 25.04 7.8 46 22 -12.4 9.7
19:00 1019 30.09 848 25.04 7.7 45.9 23 -12.3 9.9
19:05 1019 30.09 848 25.04 7.7 45.8 23 -12.2 10
19:10 1019 30.09 848 25.04 7.6 45.7 24 -12 10.5
19:15 1019 30.09 848 25.04 7.6 45.6 23 -12.2 10
19:20 1019 30.09 848 25.04 7.6 45.6 22 -12.6 9.3
19:25 1019 30.09 848 25.04 7.5 45.4 22 -12.8 9
19:30 1019 30.09 848 25.04 7.4 45.3 22 -12.9 8.8
19:35 1019 30.09 848 25.04 7.4 45.3 23 -12.5 9.5
19:40 1019 30.09 848 25.04 7.3 45.2 23 -12.5 9.5
19:45 1019 30.09 848 25.04 7.3 45.1 24 -12.2 10
19:50 1019 30.09 848 25.04 6.8 44.2 31 -9 15.8
19:55 1019 30.09 848 25.04 5.6 42 33 -9.5 14.9
20:00 1019 30.09 848 25.04 5.3 41.5 33 -9.8 14.3
20:05 1019 30.09 848 25.04 5.3 41.5 33 -9.8 14.3
20:10 1019 30.09 848 25.04 5.4 41.6 33 -9.6 14.6
20:15 1019 30.09 848 25.04 5.4 41.7 34 -9.4 15.1
20:20 1019 30.09 848 25.04 5 41 35 -9.1 15.6
20:25 1019 30.09 848 25.04 4.7 40.5 36 -9 15.7
20:30 1019 30.09 848 25.04 4.7 40.5 35 -9.3 15.2
20:35 1019 30.09 848 25.04 4.9 40.9 35 -9.5 15
20:40 1019 30.09 848 25.04 5.1 41.1 33 -9.8 14.4
20:45 1019 30.09 848 25.04 5.2 41.4 32 -10.3 13.5
20:50 1019 30.09 848 25.04 5.3 41.6 32 -10.1 13.7
20:55 1019 30.09 848 25.04 5.4 41.7 31 -10.4 13.3
21:00 1019 30.09 848 25.04 5.3 41.6 33 -9.8 14.4
21:05 1019 30.09 848 25.04 5.1 41.1 34 -9.7 14.5
21:10 1019 30.09 848 25.04 4.9 40.8 34 -9.5 14.8
21:15 1019 30.09 848 25.04 4.8 40.6 35 -9.6 14.8
21:20 1019 30.09 848 25.04 4.6 40.4 35 -9.6 14.7
21:25 1019 30.09 848 25.04 4.5 40.1 36 -9.4 15.2
21:30 1019 30.09 849 25.07 4.3 39.8 37 -9.1 15.6
21:35 1019 30.09 849 25.07 4.1 39.5 41 -8 17.6
21:40 1020 30.12 849 25.07 3.7 38.7 40 -8.6 16.5
21:45 1020 30.12 849 25.07 3.6 38.5 43 -7.9 17.7
21:50 1020 30.12 849 25.07 3.2 37.7 45 -7.7 18.2
21:55 1019 30.09 849 25.07 3 37.4 44 -8.1 17.4
22:00 1019 30.09 849 25.07 3.1 37.6 44 -8.1 17.4
22:05 1019 30.09 849 25.07 3.2 37.8 42 -8.4 16.8
22:10 1019 30.09 849 25.07 3.4 38.1 41 -8.5 16.7
22:15 1019 30.09 849 25.07 3.6 38.5 39 -9.1 15.6
22:20 1019 30.09 849 25.07 3.8 38.9 41 -8.3 17
22:25 1019 30.09 849 25.07 3.7 38.6 46 -6.9 19.6
22:30 1019 30.09 849 25.07 3 37.4 46 -7.6 18.4
22:35 1019 30.09 849 25.07 3 37.5 46 -7.6 18.3
22:40 1019 30.09 849 25.07 3.1 37.5 42 -8.7 16.3
22:45 1019 30.09 849 25.07 3.3 37.9 43 -8 17.6
22:50 1019 30.09 849 25.07 3.2 37.7 45 -7.7 18.1
22:55 1019 30.09 848 25.04 3.1 37.5 44 -8 17.6
23:00 1019 30.09 848 25.04 3.3 37.9 43 -8.3 17.1
23:05 1019 30.09 848 25.04 3.3 38 42 -8.5 16.7
23:10 1019 30.09 848 25.04 3.2 37.8 42 -8.5 16.6
23:15 1019 30.09 848 25.04 3.3 38 42 -8.5 16.8
23:20 1019 30.09 848 25.04 3.3 37.9 41 -8.7 16.4
23:25 1019 30.09 848 25.04 3.3 38 40 -8.9 16
23:30 1019 30.09 848 25.04 3.2 37.7 41 -8.8 16.2
23:35 1019 30.09 848 25.04 3.2 37.7 42 -8.6 16.4
23:40 1019 30.09 848 25.04 3.3 38 40 -8.9 15.9
23:45 1019 30.09 848 25.04 3.3 38 41 -8.6 16.5
23:50 1019 30.09 848 25.04 3.2 37.8 42 -8.5 16.6
23:55 1019 30.09 848 25.04 3.2 37.8 42 -8.5 16.7
24:00 1019 30.09 848 25.04 3 37.5 42 -8.6 16.6